Dalmally, United Kingdom
Current Conditions -  °F | °C
As of 4:20 AM on Wednesday 28 Jan 2015 (Local Time) from EGPF Reporting Station
Light Rain Light Rain  
Wind Chill: 38°   Ceiling: Unl
Heat Index: 46°   Visibility: 6mi
Dew Point: 43°   Wind: 25mph
Humidity: 87%   Direction: 250°WSW
Pressure: 29.32"   Gusts: NA
Location:  56.4°N, 4.98°W
Report Text: EGPF 280420Z AUTO 25022KT 9999 -RA SCT005/// SCT014/// //////CB 08/06 Q0993 RERA
Loading
Personal Weather Stations






























Interactive Weather Map New forecast layout! Learn more

10-Day Weather Forecast

Advertisements
Track Severe Weather on mobile